createdAt,value
2023-02-22T00:06:29.640Z,73.83
2023-02-22T00:08:59.658Z,88.90
2023-02-22T00:11:28.196Z,88.07
2023-02-22T00:13:57.629Z,90.17
2023-02-22T00:16:26.797Z,109.40
2023-02-22T00:18:55.190Z,103.77
2023-02-22T00:21:23.665Z,98.87
2023-02-22T00:23:54.676Z,96.00
2023-02-22T00:26:24.461Z,102.30
2023-02-22T00:28:54.362Z,112.70
2023-02-22T00:31:23.505Z,117.43
2023-02-22T00:33:51.748Z,106.67
2023-02-22T00:36:19.856Z,108.63
2023-02-22T00:38:47.939Z,101.77
2023-02-22T00:41:16.321Z,104.50
2023-02-22T00:43:45.882Z,106.03
2023-02-22T00:46:15.158Z,106.87
2023-02-22T00:48:43.518Z,108.83
2023-02-22T00:51:11.971Z,112.17
2023-02-22T00:53:40.126Z,113.23
2023-02-22T00:56:08.538Z,116.30
2023-02-22T00:58:36.568Z,117.60
2023-02-22T01:01:06.315Z,106.53
2023-02-22T01:03:35.283Z,117.90
2023-02-22T01:06:03.482Z,113.50
2023-02-22T01:08:32.590Z,103.23
2023-02-22T01:11:00.876Z,117.53
2023-02-22T01:13:28.988Z,119.77
2023-02-22T01:15:57.723Z,117.93
2023-02-22T01:18:27.510Z,137.00
2023-02-22T01:20:55.560Z,119.50
2023-02-22T01:23:23.698Z,124.13
2023-02-22T01:25:51.742Z,129.20
2023-02-22T01:28:19.875Z,135.07
2023-02-22T01:30:47.974Z,126.10
2023-02-22T01:33:16.897Z,141.00
2023-02-22T01:35:46.893Z,131.17
2023-02-22T01:38:15.318Z,127.07
2023-02-22T01:40:44.978Z,134.67
2023-02-22T01:43:22.605Z,147.77
2023-02-22T01:45:56.833Z,127.50
2023-02-22T01:48:30.856Z,137.53
2023-02-22T01:51:03.164Z,133.90
2023-02-22T01:53:38.582Z,135.37
2023-02-22T01:56:07.981Z,145.60
2023-02-22T01:58:38.534Z,153.20
2023-02-22T02:01:08.138Z,150.00
2023-02-22T02:03:39.551Z,164.10
2023-02-22T02:06:12.841Z,147.73
2023-02-22T02:08:51.749Z,157.87
2023-02-22T02:11:24.653Z,163.90
2023-02-22T02:13:55.100Z,142.80
2023-02-22T02:16:24.516Z,141.53
2023-02-22T02:18:53.230Z,158.73
2023-02-22T02:21:49.848Z,170.97
2023-02-22T02:24:57.478Z,148.93
2023-02-22T02:27:27.818Z,150.93
2023-02-22T02:30:27.717Z,161.50
2023-02-22T02:32:59.841Z,151.60
2023-02-22T02:35:40.375Z,150.67
2023-02-22T02:38:15.855Z,155.83
2023-02-22T02:40:50.271Z,155.57
2023-02-22T02:43:28.972Z,154.30
2023-02-22T02:46:02.737Z,166.73
2023-02-22T02:48:36.253Z,167.60
2023-02-22T02:51:07.773Z,176.67
2023-02-22T02:53:39.879Z,181.00
2023-02-22T02:56:08.652Z,186.17
2023-02-22T02:58:50.187Z,167.60
2023-02-22T03:01:32.223Z,165.10
2023-02-22T03:04:21.852Z,194.93
2023-02-22T03:07:16.592Z,155.43
2023-02-22T03:10:00.276Z,168.80
2023-02-22T03:12:39.920Z,167.83
2023-02-22T03:15:21.933Z,173.83
2023-02-22T03:17:56.266Z,183.33
2023-02-22T03:20:31.832Z,170.23
2023-02-22T03:23:06.123Z,173.83
2023-02-22T03:25:39.668Z,163.57
2023-02-22T03:28:12.976Z,178.60
2023-02-22T03:30:47.705Z,170.53
2023-02-22T03:33:20.850Z,175.00
2023-02-22T03:35:57.040Z,169.70
2023-02-22T03:38:29.106Z,170.87
2023-02-22T03:41:01.803Z,178.17
2023-02-22T03:43:34.176Z,162.47
2023-02-22T03:46:04.775Z,168.50
2023-02-22T03:48:39.260Z,179.63
2023-02-22T03:51:08.942Z,180.03
2023-02-22T03:53:38.148Z,205.13
2023-02-22T03:56:10.402Z,177.53
2023-02-22T03:58:43.967Z,161.97
2023-02-22T04:01:13.396Z,167.37
2023-02-22T04:03:42.190Z,178.53
2023-02-22T04:06:12.118Z,185.50
2023-02-22T04:08:40.310Z,176.93
2023-02-22T04:11:08.358Z,153.67
2023-02-22T04:13:36.423Z,174.83
2023-02-22T04:16:04.587Z,179.40
2023-02-22T04:18:32.765Z,167.00
2023-02-22T04:21:00.774Z,175.27
2023-02-22T04:23:30.266Z,166.60
2023-02-22T04:25:58.297Z,179.03
2023-02-22T04:28:26.431Z,165.57
2023-02-22T04:30:54.515Z,164.37
2023-02-22T04:33:22.656Z,187.53
2023-02-22T04:35:51.657Z,170.47
2023-02-22T04:38:20.021Z,171.73
2023-02-22T04:40:49.405Z,171.33
2023-02-22T04:43:17.580Z,161.20
2023-02-22T04:45:45.722Z,195.03
2023-02-22T04:48:13.811Z,181.67
2023-02-22T04:50:41.853Z,186.50
2023-02-22T04:53:10.157Z,174.73
2023-02-22T04:55:38.346Z,180.10
2023-02-22T04:58:09.478Z,182.67
2023-02-22T05:00:37.637Z,178.93
2023-02-22T05:03:06.086Z,192.33
2023-02-22T05:05:34.120Z,191.03
2023-02-22T05:08:02.371Z,183.93
2023-02-22T05:10:30.637Z,179.30
2023-02-22T05:12:58.694Z,191.30
2023-02-22T05:15:28.103Z,168.60
2023-02-22T05:17:56.154Z,195.87
2023-02-22T05:20:28.357Z,186.77
2023-02-22T05:22:56.800Z,168.70
2023-02-22T05:25:25.492Z,188.50
2023-02-22T05:27:54.727Z,205.07
2023-02-22T05:30:24.773Z,172.93
2023-02-22T05:32:54.457Z,178.17
2023-02-22T05:35:23.778Z,188.60
2023-02-22T05:37:52.307Z,164.50
2023-02-22T05:40:21.484Z,185.77
2023-02-22T05:42:49.979Z,177.40
2023-02-22T05:45:19.618Z,185.33
2023-02-22T05:47:48.539Z,193.57
2023-02-22T05:50:18.313Z,199.00
2023-02-22T05:52:47.249Z,185.03
2023-02-22T05:55:17.763Z,179.03
2023-02-22T05:57:45.829Z,166.40
2023-02-22T06:00:18.222Z,175.37
2023-02-22T06:02:46.312Z,177.57
2023-02-22T06:05:14.838Z,182.60
2023-02-22T06:07:44.262Z,170.17
2023-02-22T06:10:13.452Z,184.13
2023-02-22T06:12:41.704Z,186.07
2023-02-22T06:15:10.144Z,207.00
2023-02-22T06:17:39.530Z,171.40
2023-02-22T06:20:08.636Z,176.20
2023-02-22T06:22:36.647Z,182.80
2023-02-22T06:25:07.200Z,182.00
2023-02-22T06:27:36.290Z,178.10
2023-02-22T06:30:05.086Z,168.63
2023-02-22T06:32:33.404Z,175.60
2023-02-22T06:35:01.493Z,191.73
2023-02-22T06:37:29.565Z,179.30
2023-02-22T06:40:00.723Z,191.63
2023-02-22T06:42:32.162Z,182.73
2023-02-22T06:45:00.292Z,181.50
2023-02-22T06:47:28.587Z,172.37
2023-02-22T06:49:57.105Z,181.70
2023-02-22T06:52:25.792Z,190.90
2023-02-22T06:54:54.288Z,193.73
2023-02-22T06:57:22.360Z,191.07
2023-02-22T06:59:51.817Z,179.87
2023-02-22T07:02:19.931Z,275.27
2023-02-22T07:04:48.035Z,192.80
2023-02-22T07:07:16.048Z,198.97
2023-02-22T07:09:47.511Z,198.30
2023-02-22T07:12:15.876Z,188.50
2023-02-22T07:14:44.290Z,208.93
2023-02-22T07:17:13.711Z,202.97
2023-02-22T07:19:41.746Z,197.43
2023-02-22T07:22:09.759Z,175.07
2023-02-22T07:24:37.874Z,176.20
2023-02-22T07:27:06.206Z,191.23
2023-02-22T07:29:36.102Z,216.23
2023-02-22T07:32:04.547Z,183.50
2023-02-22T07:34:34.009Z,182.80
2023-02-22T07:37:02.030Z,191.40
2023-02-22T07:39:30.158Z,166.47
2023-02-22T07:41:59.241Z,208.67
2023-02-22T07:44:27.535Z,185.00
2023-02-22T07:46:55.546Z,194.97
2023-02-22T07:49:23.579Z,201.90
2023-02-22T07:51:52.982Z,184.17
2023-02-22T07:54:21.387Z,191.97
2023-02-22T07:56:50.007Z,187.17
2023-02-22T07:59:18.110Z,179.90
2023-02-22T08:01:46.140Z,194.93
2023-02-22T08:04:14.207Z,198.07
2023-02-22T08:06:42.553Z,184.10
2023-02-22T08:09:11.991Z,178.67
2023-02-22T08:11:40.037Z,176.87
2023-02-22T08:14:08.157Z,182.47
2023-02-22T08:16:36.254Z,193.23
2023-02-22T08:19:04.361Z,191.97
2023-02-22T08:21:32.376Z,179.60
2023-02-22T08:24:00.561Z,182.63
2023-02-22T08:26:29.968Z,180.37
2023-02-22T08:28:58.088Z,178.60
2023-02-22T08:31:26.170Z,180.47
2023-02-22T08:33:54.281Z,177.13
2023-02-22T08:36:22.409Z,179.33
2023-02-22T08:39:12.170Z,174.40
2023-02-22T08:41:41.546Z,166.70
2023-02-22T08:44:09.613Z,172.07
2023-02-22T08:46:38.938Z,168.57
2023-02-22T08:49:08.885Z,160.83
2023-02-22T08:51:37.774Z,152.60
2023-02-22T08:54:06.828Z,152.40
2023-02-22T08:56:35.001Z,163.77
2023-02-22T08:59:04.639Z,160.10
2023-02-22T09:01:34.721Z,158.73
2023-02-22T09:04:03.291Z,141.00
2023-02-22T09:06:31.504Z,156.70
2023-02-22T09:08:59.677Z,145.30
2023-02-22T09:11:27.704Z,147.50
2023-02-22T09:13:55.792Z,125.00
2023-02-22T09:16:25.436Z,131.43
2023-02-22T09:18:53.783Z,131.97
2023-02-22T09:21:21.798Z,139.07
2023-02-22T09:23:49.926Z,121.40
2023-02-22T09:26:17.981Z,139.47
2023-02-22T09:28:46.002Z,130.40
2023-02-22T09:31:14.324Z,136.00
2023-02-22T09:33:47.116Z,128.37
2023-02-22T09:36:15.759Z,131.10
2023-02-22T09:38:43.984Z,132.50
2023-02-22T09:41:19.655Z,137.03
2023-02-22T09:43:53.322Z,113.70
2023-02-22T09:46:26.901Z,127.70
2023-02-22T09:49:05.211Z,131.37
2023-02-22T09:51:40.121Z,143.00
2023-02-22T09:54:18.640Z,112.50
2023-02-22T09:56:48.354Z,113.60
2023-02-22T09:59:22.826Z,132.03
2023-02-22T10:01:59.562Z,132.13
2023-02-22T10:04:41.312Z,113.10
2023-02-22T10:07:18.745Z,122.70
2023-02-22T10:09:49.783Z,120.30
2023-02-22T10:12:29.512Z,131.27
2023-02-22T10:15:34.352Z,132.67
2023-02-22T10:18:30.370Z,135.13
2023-02-22T10:21:08.647Z,141.80
2023-02-22T10:23:46.309Z,131.37
2023-02-22T10:26:19.403Z,160.60
2023-02-22T10:28:55.279Z,156.33
2023-02-22T10:31:27.921Z,147.60
2023-02-22T10:34:00.862Z,152.60
2023-02-22T10:36:30.786Z,144.83
2023-02-22T10:39:01.830Z,150.40
2023-02-22T10:41:32.306Z,168.20
2023-02-22T10:44:00.896Z,164.37
2023-02-22T10:46:31.341Z,160.97
2023-02-22T10:49:04.430Z,162.13
2023-02-22T10:51:35.222Z,164.40
2023-02-22T10:54:22.491Z,144.97
2023-02-22T10:56:52.556Z,159.60
2023-02-22T10:59:34.056Z,156.53
2023-02-22T11:02:03.058Z,156.67
2023-02-22T11:04:47.048Z,162.17
2023-02-22T11:07:24.705Z,165.37
2023-02-22T11:09:55.942Z,160.10
2023-02-22T11:12:30.149Z,148.70
2023-02-22T11:14:58.756Z,170.13
2023-02-22T11:17:33.363Z,156.13
2023-02-22T11:20:01.897Z,150.00
2023-02-22T11:22:38.631Z,159.50
2023-02-22T11:25:07.814Z,156.13
2023-02-22T11:27:40.622Z,144.53
2023-02-22T11:30:29.012Z,153.27
2023-02-22T11:33:00.274Z,160.30
2023-02-22T11:35:36.177Z,152.23
2023-02-22T11:38:22.757Z,146.47
2023-02-22T11:41:09.133Z,145.10
2023-02-22T11:43:37.662Z,158.57
2023-02-22T11:46:08.424Z,148.33
2023-02-22T11:48:39.486Z,157.17
2023-02-22T11:51:25.025Z,149.93
2023-02-22T11:54:25.592Z,151.40
2023-02-22T11:56:58.258Z,146.93
2023-02-22T11:59:37.647Z,143.53
2023-02-22T12:02:24.646Z,157.27
2023-02-22T12:05:18.993Z,139.17
2023-02-22T12:07:57.747Z,141.40
2023-02-22T12:10:41.593Z,157.70
2023-02-22T12:13:27.164Z,149.13
2023-02-22T12:16:03.267Z,147.93
2023-02-22T12:18:38.060Z,143.37
2023-02-22T12:21:12.654Z,149.13
2023-02-22T12:23:46.795Z,151.37
2023-02-22T12:26:21.117Z,146.43
2023-02-22T12:28:59.238Z,136.80
2023-02-22T12:31:34.036Z,155.27
2023-02-22T12:34:09.526Z,129.47
2023-02-22T12:36:43.026Z,134.23
2023-02-22T12:39:29.201Z,125.00
2023-02-22T12:42:01.945Z,120.20
2023-02-22T12:44:35.159Z,109.53
2023-02-22T12:47:05.501Z,119.10
2023-02-22T12:49:41.309Z,118.80
2023-02-22T12:52:21.741Z,127.47
2023-02-22T12:54:56.390Z,130.77
2023-02-22T12:57:35.404Z,128.73
2023-02-22T13:00:07.847Z,123.20
2023-02-22T13:02:41.102Z,133.07
2023-02-22T13:05:17.814Z,132.33
2023-02-22T13:07:55.299Z,129.00
2023-02-22T13:10:36.454Z,118.87
2023-02-22T13:13:15.936Z,122.97
2023-02-22T13:15:49.618Z,112.23
2023-02-22T13:18:25.873Z,111.10
2023-02-22T13:21:00.732Z,115.87
2023-02-22T13:23:39.931Z,110.90
2023-02-22T13:26:17.130Z,119.77
2023-02-22T13:28:50.270Z,115.57
2023-02-22T13:31:31.421Z,113.73
2023-02-22T13:34:16.513Z,120.40
2023-02-22T13:37:01.765Z,117.27
2023-02-22T13:39:57.634Z,124.20
2023-02-22T13:42:50.059Z,137.70
2023-02-22T13:45:52.904Z,122.50
2023-02-22T13:48:44.825Z,133.70
2023-02-22T13:51:24.363Z,123.03
2023-02-22T13:53:56.547Z,116.03
2023-02-22T13:56:26.143Z,124.37
2023-02-22T13:58:56.596Z,129.73
2023-02-22T14:01:42.440Z,117.47
2023-02-22T14:04:22.687Z,114.97
2023-02-22T14:06:51.268Z,110.10
2023-02-22T14:09:45.523Z,104.17
2023-02-22T14:12:50.055Z,121.10
2023-02-22T14:15:29.707Z,108.60
2023-02-22T14:18:05.141Z,116.90
2023-02-22T14:20:36.568Z,103.97
2023-02-22T14:23:30.985Z,104.17
2023-02-22T14:26:12.648Z,124.93
2023-02-22T14:28:48.696Z,130.13
2023-02-22T14:31:34.479Z,116.77
2023-02-22T14:34:11.182Z,123.23
2023-02-22T14:36:45.975Z,115.43
2023-02-22T14:39:24.467Z,124.17
2023-02-22T14:42:01.457Z,114.47
2023-02-22T14:44:34.545Z,109.50
2023-02-22T14:47:06.116Z,97.60
2023-02-22T14:49:41.584Z,106.93
2023-02-22T14:52:19.756Z,110.97
2023-02-22T14:54:59.724Z,104.33
2023-02-22T14:57:39.747Z,107.50
2023-02-22T15:00:30.571Z,103.60
2023-02-22T15:03:00.664Z,103.40
2023-02-22T15:05:35.421Z,95.17
2023-02-22T15:08:05.943Z,82.60
2023-02-22T15:10:42.993Z,87.17
2023-02-22T15:13:18.817Z,92.10
2023-02-22T15:15:49.419Z,90.87
2023-02-22T15:18:27.462Z,96.83
2023-02-22T15:20:59.446Z,95.90
2023-02-22T15:23:33.250Z,93.90
2023-02-22T15:26:02.961Z,93.30
2023-02-22T15:28:32.190Z,104.93
2023-02-22T15:31:19.635Z,84.50
2023-02-22T15:33:48.074Z,86.00
2023-02-22T15:36:18.310Z,86.20
2023-02-22T15:38:51.275Z,83.53
2023-02-22T15:41:29.030Z,110.17
2023-02-22T15:44:08.021Z,107.33
2023-02-22T15:46:42.353Z,102.93
2023-02-22T15:49:23.321Z,120.40
2023-02-22T15:52:07.775Z,111.87
2023-02-22T15:54:44.770Z,110.60
2023-02-22T15:57:16.818Z,103.80
2023-02-22T15:59:49.976Z,118.37
2023-02-22T16:02:38.781Z,98.07
2023-02-22T16:05:11.722Z,90.30
2023-02-22T16:07:46.004Z,97.57
2023-02-22T16:10:30.881Z,114.13
2023-02-22T16:13:07.812Z,113.57
2023-02-22T16:15:36.538Z,119.50
2023-02-22T16:18:36.198Z,125.17
2023-02-22T16:21:07.752Z,109.27
2023-02-22T16:23:48.229Z,119.33
2023-02-22T16:26:25.448Z,136.30
2023-02-22T16:28:56.107Z,136.43
2023-02-22T16:31:26.285Z,126.10
2023-02-22T16:33:55.398Z,138.23
2023-02-22T16:36:37.168Z,128.27
2023-02-22T16:39:08.709Z,118.07
2023-02-22T16:41:36.843Z,129.57
2023-02-22T16:44:07.752Z,119.87
2023-02-22T16:46:37.840Z,141.90
2023-02-22T16:49:06.333Z,120.87
2023-02-22T16:51:40.747Z,118.30
2023-02-22T16:54:13.546Z,136.73
2023-02-22T16:56:42.220Z,118.43
2023-02-22T16:59:14.682Z,134.37
2023-02-22T17:01:43.059Z,142.33
2023-02-22T17:04:16.046Z,132.83
2023-02-22T17:06:44.122Z,132.33
2023-02-22T17:09:13.666Z,127.07
2023-02-22T17:11:41.774Z,128.17
2023-02-22T17:14:11.846Z,124.23
2023-02-22T17:16:39.890Z,134.03
2023-02-22T17:19:15.996Z,125.37
2023-02-22T17:21:44.160Z,147.20
2023-02-22T17:24:14.829Z,124.57
2023-02-22T17:26:43.028Z,139.07
2023-02-22T17:29:11.075Z,128.00
2023-02-22T17:31:39.152Z,125.87
2023-02-22T17:34:07.441Z,134.27
2023-02-22T17:36:37.437Z,130.87
2023-02-22T17:39:06.761Z,135.80
2023-02-22T17:41:36.158Z,133.00
2023-02-22T17:44:04.512Z,127.77
2023-02-22T17:46:32.582Z,132.93
2023-02-22T17:49:00.651Z,125.57
2023-02-22T17:51:28.706Z,127.57
2023-02-22T17:53:56.719Z,126.47
2023-02-22T17:56:25.456Z,124.90
2023-02-22T17:58:56.368Z,124.07
2023-02-22T18:01:27.137Z,126.93
2023-02-22T18:03:56.060Z,128.57
2023-02-22T18:06:28.438Z,122.10
2023-02-22T18:08:57.356Z,124.80
2023-02-22T18:11:27.238Z,114.70
2023-02-22T18:13:58.079Z,125.67
2023-02-22T18:16:27.006Z,133.10
2023-02-22T18:18:56.425Z,129.27
2023-02-22T18:21:26.739Z,117.67
2023-02-22T18:23:55.262Z,124.10
2023-02-22T18:26:25.328Z,128.93
2023-02-22T18:28:54.716Z,126.73
2023-02-22T18:31:24.874Z,130.13
2023-02-22T18:33:53.977Z,115.80
2023-02-22T18:36:23.014Z,122.83
2023-02-22T18:38:52.824Z,124.23
2023-02-22T18:41:25.125Z,125.80
2023-02-22T18:43:55.144Z,128.43
2023-02-22T18:46:25.993Z,119.03
2023-02-22T18:48:55.558Z,113.60
2023-02-22T18:51:24.433Z,127.30
2023-02-22T18:53:56.844Z,124.93
2023-02-22T18:56:29.660Z,128.17
2023-02-22T18:58:59.701Z,118.20
2023-02-22T19:01:29.951Z,131.60
2023-02-22T19:03:58.166Z,117.17
2023-02-22T19:06:26.393Z,117.33
2023-02-22T19:08:54.453Z,118.00
2023-02-22T19:11:24.448Z,119.30
2023-02-22T19:13:53.929Z,131.40
2023-02-22T19:16:23.530Z,135.40
2023-02-22T19:18:57.247Z,122.37
2023-02-22T19:21:25.931Z,122.70
2023-02-22T19:23:54.542Z,134.13
2023-02-22T19:26:24.948Z,121.53
2023-02-22T19:28:56.052Z,126.67
2023-02-22T19:31:26.628Z,118.00
2023-02-22T19:33:56.916Z,129.20
2023-02-22T19:36:25.141Z,122.73
2023-02-22T19:38:53.439Z,134.83
2023-02-22T19:41:24.202Z,135.90
2023-02-22T19:43:53.628Z,138.50
2023-02-22T19:46:22.580Z,126.63
2023-02-22T19:48:50.988Z,128.80
2023-02-22T19:51:24.515Z,145.60
2023-02-22T19:53:52.969Z,132.70
2023-02-22T19:56:27.006Z,138.23
2023-02-22T19:58:56.510Z,138.77
2023-02-22T20:01:27.279Z,136.57
2023-02-22T20:03:59.691Z,136.07
2023-02-22T20:06:34.697Z,126.47
2023-02-22T20:09:03.632Z,127.70
2023-02-22T20:11:32.739Z,139.37
2023-02-22T20:14:01.952Z,132.40
2023-02-22T20:16:30.602Z,127.87
2023-02-22T20:18:58.698Z,133.73
2023-02-22T20:21:31.740Z,143.17
2023-02-22T20:23:59.823Z,141.30
2023-02-22T20:26:29.113Z,131.97
2023-02-22T20:28:57.706Z,130.90
2023-02-22T20:31:25.827Z,134.37
2023-02-22T20:33:55.973Z,140.37
2023-02-22T20:36:24.975Z,132.83
2023-02-22T20:38:55.973Z,126.23
2023-02-22T20:41:26.781Z,129.67
2023-02-22T20:43:56.534Z,149.47
2023-02-22T20:46:26.192Z,157.23
2023-02-22T20:48:55.654Z,140.07
2023-02-22T20:51:24.333Z,149.73
2023-02-22T20:53:52.610Z,153.60
2023-02-22T20:56:23.878Z,142.47
2023-02-22T20:58:52.177Z,140.97
2023-02-22T21:01:22.498Z,131.57
2023-02-22T21:03:51.434Z,137.77
2023-02-22T21:06:22.996Z,127.73
2023-02-22T21:08:53.727Z,115.13
2023-02-22T21:11:24.611Z,110.00
2023-02-22T21:13:52.895Z,115.83
2023-02-22T21:16:22.962Z,119.00
2023-02-22T21:18:52.467Z,119.50
2023-02-22T21:21:20.652Z,118.93
2023-02-22T21:23:50.907Z,130.60
2023-02-22T21:26:20.818Z,113.40
2023-02-22T21:28:51.515Z,117.67
2023-02-22T21:31:21.147Z,111.40
2023-02-22T21:33:51.026Z,123.17
2023-02-22T21:36:19.756Z,106.90
2023-02-22T21:38:53.249Z,101.40
2023-02-22T21:41:23.397Z,116.67
2023-02-22T21:43:53.481Z,101.73
2023-02-22T21:46:22.690Z,108.47
2023-02-22T21:48:50.864Z,95.57
2023-02-22T21:51:23.312Z,99.80
2023-02-22T21:53:54.336Z,97.47
2023-02-22T21:56:24.571Z,109.23
2023-02-22T21:58:59.721Z,101.27
2023-02-22T22:01:28.655Z,99.80
2023-02-22T22:03:59.946Z,86.30
2023-02-22T22:06:28.984Z,110.23
2023-02-22T22:08:57.848Z,90.90
2023-02-22T22:11:26.038Z,81.97
2023-02-22T22:13:58.823Z,104.10
2023-02-22T22:16:29.746Z,91.03
2023-02-22T22:18:58.454Z,101.90
2023-02-22T22:21:27.096Z,89.30
2023-02-22T22:23:56.066Z,103.33
2023-02-22T22:26:25.391Z,84.57
2023-02-22T22:28:58.647Z,96.23
2023-02-22T22:31:28.893Z,98.37
2023-02-22T22:33:57.928Z,83.20
2023-02-22T22:36:27.555Z,81.17
2023-02-22T22:38:57.575Z,85.23
2023-02-22T22:41:28.058Z,91.33
2023-02-22T22:43:57.748Z,86.20
2023-02-22T22:46:25.834Z,80.53
2023-02-22T22:48:53.922Z,75.13
2023-02-22T22:51:22.963Z,76.17
2023-02-22T22:53:51.970Z,75.50
2023-02-22T22:56:21.784Z,89.57
2023-02-22T22:58:51.407Z,80.90
2023-02-22T23:01:27.101Z,77.20
2023-02-22T23:03:57.805Z,67.70
2023-02-22T23:06:30.850Z,66.73
2023-02-22T23:09:01.003Z,70.83
2023-02-22T23:11:33.666Z,67.07
2023-02-22T23:14:04.871Z,75.00
2023-02-22T23:16:34.422Z,73.20
2023-02-22T23:19:02.425Z,70.27
2023-02-22T23:21:30.433Z,58.67
2023-02-22T23:23:59.219Z,65.17
2023-02-22T23:26:27.647Z,65.57
2023-02-22T23:28:57.428Z,69.67
2023-02-22T23:31:28.619Z,65.77
2023-02-22T23:33:59.259Z,63.57
2023-02-22T23:36:28.167Z,59.80
2023-02-22T23:38:56.229Z,56.83
2023-02-22T23:41:28.437Z,62.17
2023-02-22T23:43:56.663Z,63.17
2023-02-22T23:46:26.932Z,60.07
2023-02-22T23:49:01.637Z,60.70
2023-02-22T23:51:39.184Z,56.47
2023-02-22T23:54:08.545Z,57.87
2023-02-22T23:56:39.927Z,61.70
2023-02-22T23:59:11.296Z,56.50
